Time;durP1;ratioP1;P1;durP2;ratioP2;P2;SDS_P1;SDS_P2;PMS_P1;PMS_P2;Temp;Humidity;BMP_temperature;BMP_pressure;BME280_temperature;BME280_humidity;BME280_pressure;Samples;Min_cycle;Max_cycle;Signal;HPM_P1;HPM_P2
2023/09/06 00:07:11;;;;;;;7.60;3.72;;;;;;;20.78;87.83;102113.53;20468544;28;20055;-61
2023/09/06 00:17:37;;;;;;;4.95;3.65;;;;;;;20.70;87.56;102118.31;20458201;28;20220;-61
2023/09/06 00:28:01;;;;;;;5.28;3.65;;;;;;;20.65;87.75;102107.19;20478737;28;20415;-61
2023/09/06 00:38:24;;;;;;;6.53;3.60;;;;;;;20.54;87.79;102114.78;20455750;28;20182;-61
2023/09/06 00:48:50;;;;;;;9.35;3.60;;;;;;;20.47;87.82;102120.41;20482732;28;20071;-62
2023/09/06 00:59:14;;;;;;;4.97;3.45;;;;;;;20.43;87.37;102114.47;20476684;28;20516;-62
2023/09/06 01:09:36;;;;;;;5.60;3.55;;;;;;;20.34;87.20;102120.19;20470640;28;20608;-62
2023/09/06 01:20:39;;;;;;;5.97;3.50;;;;;;;20.29;87.87;102109.03;20498451;28;20051;-61
2023/09/06 01:31:01;;;;;;;5.78;3.63;;;;;;;20.24;87.63;102118.91;20491546;28;20043;-62
2023/09/06 01:41:23;;;;;;;8.75;3.45;;;;;;;20.11;88.07;102107.28;20461965;28;20050;-62
2023/09/06 01:51:44;;;;;;;3.97;3.38;;;;;;;20.05;88.05;102107.59;20476219;28;20052;-61
2023/09/06 02:02:07;;;;;;;5.75;3.22;;;;;;;19.99;88.38;102108.75;20456804;28;20059;-62
2023/09/06 02:12:29;;;;;;;6.22;3.47;;;;;;;19.95;88.55;102103.69;20478368;28;20046;-62
2023/09/06 02:22:55;;;;;;;5.82;3.22;;;;;;;19.88;88.42;102110.16;20483195;28;20058;-61
2023/09/06 02:33:20;;;;;;;6.63;3.78;;;;;;;19.78;88.80;102114.16;20458985;28;20043;-61
2023/09/06 02:43:42;;;;;;;5.50;3.47;;;;;;;19.67;89.71;102113.81;20462544;28;20053;-62
2023/09/06 02:54:03;;;;;;;4.65;3.80;;;;;;;19.60;89.15;102122.91;20454091;28;20050;-61
2023/09/06 03:04:25;;;;;;;8.63;4.43;;;;;;;19.41;90.63;102122.06;20471964;28;20047;-61
2023/09/06 03:14:48;;;;;;;5.70;4.20;;;;;;;19.37;91.03;102129.22;20477936;28;20054;-62
2023/09/06 03:25:09;;;;;;;8.15;5.30;;;;;;;19.31;91.02;102136.47;20464043;28;20054;-61
2023/09/06 03:35:31;;;;;;;6.55;3.72;;;;;;;19.23;91.16;102133.38;20466002;28;20054;-62
2023/09/06 03:45:55;;;;;;;5.65;4.20;;;;;;;19.05;91.06;102128.00;20469179;28;20047;-62
2023/09/06 03:56:16;;;;;;;6.82;4.40;;;;;;;19.01;91.35;102146.56;20490862;28;20149;-62
2023/09/06 04:06:38;;;;;;;6.63;4.10;;;;;;;18.90;91.59;102143.56;20457279;28;20050;-61
2023/09/06 04:17:00;;;;;;;7.57;4.40;;;;;;;18.81;91.17;102151.81;20450225;28;20428;-62
2023/09/06 04:27:22;;;;;;;5.35;4.45;;;;;;;18.73;91.45;102156.56;20465637;28;20047;-61
2023/09/06 04:37:44;;;;;;;14.27;9.43;;;;;;;18.67;91.65;102160.28;20470502;28;20062;-61
2023/09/06 04:48:08;;;;;;;7.18;4.80;;;;;;;18.58;91.87;102168.56;20474639;28;20050;-62
2023/09/06 04:58:32;;;;;;;7.43;4.60;;;;;;;18.55;92.53;102171.28;20481096;28;20059;-62
2023/09/06 05:08:56;;;;;;;5.35;4.28;;;;;;;18.48;92.56;102167.22;20467320;28;20043;-62
2023/09/06 05:19:21;;;;;;;12.43;4.90;;;;;;;18.54;93.36;102171.34;20470255;28;20043;-61
2023/09/06 05:29:43;;;;;;;8.48;5.13;;;;;;;18.58;93.57;102179.03;20469424;28;20047;-62
2023/09/06 05:40:06;;;;;;;5.95;4.68;;;;;;;18.62;93.09;102180.63;20464166;28;20081;-61
2023/09/06 05:50:28;;;;;;;6.38;4.35;;;;;;;18.75;93.27;102176.53;20471210;28;20412;-62
2023/09/06 06:00:55;;;;;;;5.88;4.65;;;;;;;18.82;92.54;102187.66;20460642;28;20051;-61
2023/09/06 06:11:17;;;;;;;10.45;4.78;;;;;;;18.93;92.84;102196.78;20475890;28;20432;-62
2023/09/06 06:21:39;;;;;;;11.98;5.65;;;;;;;19.01;91.90;102196.41;20429990;28;20659;-61
2023/09/06 06:32:01;;;;;;;12.55;5.70;;;;;;;19.15;91.35;102207.19;20438656;28;20043;-62
2023/09/06 06:42:23;;;;;;;11.52;5.40;;;;;;;19.36;90.97;102201.03;20467203;28;20095;-62
2023/09/06 06:52:46;;;;;;;7.72;4.82;;;;;;;19.52;89.86;102206.47;20442541;28;20530;-62
2023/09/06 07:03:09;;;;;;;8.88;4.65;;;;;;;19.70;89.72;102221.38;20418975;28;20360;-62
2023/09/06 07:13:31;;;;;;;5.75;3.97;;;;;;;19.87;89.59;102224.06;20425801;28;20055;-61
2023/09/06 07:23:53;;;;;;;6.10;3.53;;;;;;;20.12;88.23;102235.16;20464934;28;20055;-62
2023/09/06 07:34:14;;;;;;;6.53;3.33;;;;;;;20.32;87.68;102235.09;20473644;28;20134;-62
2023/09/06 07:44:36;;;;;;;6.32;3.30;;;;;;;20.62;86.82;102245.94;20418808;28;20051;-60
2023/09/06 07:54:58;;;;;;;3.10;2.47;;;;;;;20.87;85.47;102246.41;20428502;28;20704;-60
2023/09/06 08:05:20;;;;;;;5.68;2.20;;;;;;;21.09;84.63;102236.53;20410925;28;20051;-60
2023/09/06 08:15:42;;;;;;;4.05;2.05;;;;;;;21.29;85.32;102235.50;20418457;28;20266;-60
2023/09/06 08:26:04;;;;;;;4.32;1.98;;;;;;;21.51;83.82;102239.56;20417662;28;20138;-59
2023/09/06 08:36:26;;;;;;;6.95;2.83;;;;;;;21.74;83.85;102243.59;20435884;28;20050;-61
2023/09/06 08:46:49;;;;;;;;;;;;;;;21.96;83.72;102237.13;20452209;28;20047;-61
2023/09/06 08:57:13;;;;;;;;;;;;;;;22.27;84.52;102244.19;20433594;28;19976;-61
2023/09/06 09:07:34;;;;;;;;;;;;;;;22.50;84.15;102249.03;20460678;28;19922;-61
2023/09/06 09:17:56;;;;;;;;;;;;;;;22.80;83.61;102242.00;20423652;28;20379;-61
2023/09/06 09:28:22;;;;;;;;;;;;;;;23.06;82.57;102231.69;20448691;28;19926;-61
2023/09/06 09:38:48;;;;;;;;;;;;;;;23.23;82.48;102234.19;20420200;28;19929;-61
2023/09/06 09:49:11;;;;;;;;;;;;;;;23.45;81.63;102246.03;20453964;28;19938;-60
2023/09/06 09:59:36;;;;;;;;;;;;;;;23.61;81.00;102232.72;20437456;28;20021;-61
2023/09/06 10:09:59;;;;;;;;;;;;;;;24.14;76.94;102235.50;20433878;28;20514;-61
2023/09/06 10:20:23;;;;;;;;;;;;;;;24.26;77.79;102229.44;20441263;28;20418;-61
2023/09/06 10:30:51;;;;;;;;;;;;;;;24.33;76.52;102225.44;20449080;28;19930;-61
2023/09/06 10:41:14;;;;;;;;;;;;;;;24.52;74.67;102230.41;20443861;28;19930;-61
2023/09/06 10:51:53;;;;;;;;;;;;;;;24.79;73.57;102232.09;20416067;28;19931;-62
2023/09/06 11:02:15;;;;;;;;;;;;;;;25.17;73.12;102212.72;20402053;28;19930;-61
2023/09/06 11:12:40;;;;;;;;;;;;;;;25.45;71.02;102201.94;20437442;28;20554;-61
2023/09/06 11:23:02;;;;;;;;;;;;;;;25.57;72.75;102211.69;20419241;28;20284;-61
2023/09/06 11:33:29;;;;;;;;;;;;;;;25.71;71.98;102193.00;20425514;28;21168;-61
2023/09/06 11:43:56;;;;;;;;;;;;;;;25.91;70.66;102189.75;20431027;28;23797;-61
2023/09/06 11:54:18;;;;;;;;;;;;;;;26.31;68.83;102193.88;20451629;28;20384;-61
2023/09/06 12:04:50;;;;;;;;;;;;;;;26.33;67.82;102186.66;20469869;28;19930;-61
2023/09/06 12:15:17;;;;;;;;;;;;;;;26.66;62.45;102168.16;20482425;28;20405;-61
2023/09/06 12:25:38;;;;;;;;;;;;;;;27.18;59.79;102175.66;20476851;28;19930;-61
2023/09/06 12:36:05;;;;;;;;;;;;;;;27.32;59.80;102169.31;20491312;28;19936;-61
2023/09/06 12:46:26;;;;;;;;;;;;;;;27.60;58.64;102160.81;20457754;28;19922;-61
2023/09/06 12:56:48;;;;;;;;;;;;;;;27.65;57.62;102156.81;20473867;28;20838;-61
2023/09/06 13:07:09;;;;;;;;;;;;;;;27.63;60.46;102140.13;20453702;28;19930;-62
2023/09/06 13:17:31;;;;;;;;;;;;;;;27.76;59.61;102145.31;20461867;28;20585;-61
2023/09/06 13:27:53;;;;;;;;;;;;;;;27.46;62.29;102142.44;20471533;28;20784;-61
2023/09/06 13:38:14;;;;;;;;;;;;;;;27.43;61.57;102143.53;20454991;28;19953;-61
2023/09/06 13:48:36;;;;;;;;;;;;;;;27.41;61.02;102136.66;20485328;28;20401;-61
2023/09/06 13:59:01;;;;;;;;;;;;;;;27.66;59.66;102120.41;20477731;28;20009;-61
2023/09/06 14:09:22;;;;;;;3.50;1.13;;;;;;;27.84;69.16;102107.44;20463594;28;20753;-61
2023/09/06 14:19:44;;;;;;;3.60;1.20;;;;;;;27.80;68.93;102099.69;20454555;28;20098;-61
2023/09/06 14:30:06;;;;;;;1.35;1.00;;;;;;;27.77;68.90;102107.06;20461567;28;20621;-61
2023/09/06 14:40:28;;;;;;;2.45;1.30;;;;;;;27.74;69.28;102104.69;20454916;28;20049;-62
2023/09/06 14:50:56;;;;;;;2.30;1.10;;;;;;;27.75;62.69;102101.03;20452808;28;20054;-62
2023/09/06 15:01:18;;;;;;;1.37;1.10;;;;;;;27.78;68.32;102103.47;20455958;28;20075;-61
2023/09/06 15:11:40;;;;;;;3.13;1.23;;;;;;;27.83;67.87;102097.75;20449823;28;20576;-61
2023/09/06 15:22:03;;;;;;;3.10;1.00;;;;;;;27.84;68.33;102097.59;20462571;28;20047;-61
2023/09/06 15:32:25;;;;;;;1.52;1.00;;;;;;;27.91;68.02;102095.31;20462839;28;20040;-61
2023/09/06 15:42:46;;;;;;;1.88;1.00;;;;;;;27.97;68.26;102106.31;20470815;28;20047;-62
2023/09/06 15:53:08;;;;;;;3.88;1.08;;;;;;;27.98;68.14;102097.38;20500025;28;20036;-62
2023/09/06 16:03:32;;;;;;;1.15;1.00;;;;;;;28.11;67.95;102103.34;20491340;28;20106;-62
2023/09/06 16:13:56;;;;;;;3.03;1.30;;;;;;;28.31;67.60;102099.84;20504071;28;20054;-61
2023/09/06 16:24:18;;;;;;;1.08;1.02;;;;;;;28.94;66.11;102098.88;20482516;28;20039;-61
2023/09/06 16:34:40;;;;;;;1.83;1.30;;;;;;;28.99;65.78;102101.16;20496934;28;20078;-61
2023/09/06 16:45:01;;;;;;;2.65;1.20;;;;;;;28.89;66.30;102100.25;20499929;28;20047;-62
2023/09/06 16:55:23;;;;;;;1.63;1.20;;;;;;;28.79;66.66;102102.03;20481900;28;20051;-61
2023/09/06 17:05:46;;;;;;;4.05;1.23;;;;;;;28.55;66.20;102105.81;20486604;28;20492;-61
2023/09/06 17:16:08;;;;;;;3.05;1.58;;;;;;;28.28;67.66;102104.59;20496165;28;20395;-61
2023/09/06 17:26:30;;;;;;;3.53;1.50;;;;;;;27.93;68.20;102110.19;20468460;28;20054;-62
2023/09/06 17:36:55;;;;;;;1.95;1.10;;;;;;;27.58;69.20;102115.69;20461611;28;20400;-61
2023/09/06 17:47:18;;;;;;;3.50;1.27;;;;;;;27.26;69.39;102125.38;20468169;28;20166;-61
2023/09/06 17:57:41;;;;;;;2.00;1.60;;;;;;;26.96;69.74;102121.66;20454450;28;20412;-62
2023/09/06 18:08:05;;;;;;;5.25;1.50;;;;;;;26.77;69.79;102124.88;20458725;28;20047;-62
2023/09/06 18:18:27;;;;;;;4.97;1.70;;;;;;;26.48;70.00;102123.56;20461475;28;20043;-61
2023/09/06 18:28:49;;;;;;;1.92;1.70;;;;;;;26.30;69.89;102143.53;20448573;28;20051;-60
2023/09/06 18:39:14;;;;;;;5.35;2.58;;;;;;;26.12;70.16;102145.75;20458220;28;20054;-61
2023/09/06 18:49:37;;;;;;;2.83;2.05;;;;;;;25.96;69.85;102160.22;20468461;28;20047;-61
2023/09/06 18:59:59;;;;;;;2.80;1.80;;;;;;;25.79;70.43;102164.97;20476124;28;20499;-61
2023/09/06 19:10:21;;;;;;;2.92;1.80;;;;;;;25.57;70.56;102169.25;20481816;28;20067;-61
2023/09/06 19:20:42;;;;;;;4.57;1.90;;;;;;;25.35;71.09;102163.72;20494696;28;20696;-61
2023/09/06 19:31:06;;;;;;;2.17;1.48;;;;;;;25.17;70.95;102159.72;20475865;28;20051;-61
2023/09/06 19:41:27;;;;;;;1.95;1.60;;;;;;;24.96;71.14;102177.13;20487049;28;20058;-61
2023/09/06 19:51:49;;;;;;;6.45;1.90;;;;;;;24.74;71.99;102173.25;20467359;28;20047;-60
2023/09/06 20:02:10;;;;;;;2.95;1.70;;;;;;;24.57;72.13;102181.47;20481007;28;20058;-61
2023/09/06 20:12:32;;;;;;;3.88;1.60;;;;;;;24.40;72.92;102187.03;20475389;28;20040;-61
2023/09/06 20:22:54;;;;;;;5.07;1.55;;;;;;;24.15;72.95;102189.59;20468461;28;20113;-61
2023/09/06 20:33:16;;;;;;;9.43;1.67;;;;;;;24.00;72.96;102200.28;20463148;28;20051;-61
2023/09/06 20:43:38;;;;;;;3.88;1.92;;;;;;;23.77;73.53;102207.88;20476623;28;20058;-61
2023/09/06 20:53:59;;;;;;;;;;;;;;;23.60;71.86;102217.81;20448964;28;20047;-61
2023/09/06 21:04:21;;;;;;;;;;;;;;;23.49;72.43;102214.97;20473493;28;19993;-61
2023/09/06 21:14:42;;;;;;;;;;;;;;;23.40;72.27;102218.19;20472530;28;19981;-61
2023/09/06 21:25:04;;;;;;;;;;;;;;;23.26;72.04;102224.28;20458601;28;19930;-61
2023/09/06 21:35:30;;;;;;;;;;;;;;;23.11;72.99;102234.94;20449526;28;19930;-61
2023/09/06 21:45:52;;;;;;;;;;;;;;;22.98;74.15;102233.94;20460567;28;20276;-62
2023/09/06 21:56:13;;;;;;;;;;;;;;;22.90;74.32;102237.91;20488191;28;20389;-61
2023/09/06 22:06:35;;;;;;;;;;;;;;;22.74;75.44;102247.66;20457866;28;19945;-61
2023/09/06 22:16:57;;;;;;;;;;;;;;;;;;20426541;28;20485;-61
2023/09/06 22:27:18;;;;;;;;;;;;;;;22.62;74.84;102247.50;20471028;28;19978;-61
2023/09/06 22:37:41;;;;;;;;;;;;;;;22.57;75.19;102252.19;20467932;28;19992;-61
2023/09/06 22:48:03;;;;;;;;;;;;;;;22.54;75.78;102254.97;20451168;28;19926;-62
2023/09/06 22:58:25;;;;;;;;;;;;;;;22.43;75.01;102258.25;20478840;28;20279;-61
2023/09/06 23:08:46;;;;;;;;;;;;;;;22.37;75.71;102263.84;20452176;28;19945;-61
2023/09/06 23:19:10;;;;;;;;;;;;;;;22.27;76.25;102270.56;20463978;28;19926;-60
2023/09/06 23:29:36;;;;;;;;;;;;;;;22.12;76.84;102270.56;20481643;28;19944;-61
2023/09/06 23:40:00;;;;;;;;;;;;;;;22.01;76.84;102270.31;20467611;28;19931;-61
2023/09/06 23:50:25;;;;;;;;;;;;;;;21.85;77.93;102265.00;20479182;28;20496;-61
